sensor_id;sensor_type;location;lat;lon;timestamp;pressure;altitude;pressure_sealevel;temperature;humidity
69689;BME280;56932;38.402;-96.176;2023-04-20T00:00:34;96144.71;;;26.74;30.37
69689;BME280;56932;38.402;-96.176;2023-04-20T00:03:00;96146.52;;;26.71;30.28
69689;BME280;56932;38.402;-96.176;2023-04-20T00:05:25;96132.76;;;26.52;30.34
69689;BME280;56932;38.402;-96.176;2023-04-20T00:07:50;96115.98;;;26.44;30.89
69689;BME280;56932;38.402;-96.176;2023-04-20T00:10:16;96109.01;;;26.77;30.14
69689;BME280;56932;38.402;-96.176;2023-04-20T00:12:41;96106.96;;;26.35;31.23
69689;BME280;56932;38.402;-96.176;2023-04-20T00:15:07;96112.86;;;26.47;31.30
69689;BME280;56932;38.402;-96.176;2023-04-20T00:17:32;96110.71;;;26.41;31.35
69689;BME280;56932;38.402;-96.176;2023-04-20T00:19:58;96108.08;;;26.47;31.53
69689;BME280;56932;38.402;-96.176;2023-04-20T00:22:23;96111.31;;;26.84;30.44
69689;BME280;56932;38.402;-96.176;2023-04-20T00:24:48;96118.42;;;26.32;31.62
69689;BME280;56932;38.402;-96.176;2023-04-20T00:27:13;96122.04;;;27.33;30.82
69689;BME280;56932;38.402;-96.176;2023-04-20T00:29:39;96122.85;;;27.83;30.90
69689;BME280;56932;38.402;-96.176;2023-04-20T00:32:05;96122.27;;;27.12;30.82
69689;BME280;56932;38.402;-96.176;2023-04-20T00:34:30;96125.25;;;27.77;31.88
69689;BME280;56932;38.402;-96.176;2023-04-20T00:36:56;96133.31;;;28.21;31.83
69689;BME280;56932;38.402;-96.176;2023-04-20T00:39:21;96148.20;;;26.55;32.31
69689;BME280;56932;38.402;-96.176;2023-04-20T00:41:46;96147.77;;;26.43;32.51
69689;BME280;56932;38.402;-96.176;2023-04-20T00:44:12;96151.33;;;26.24;32.39
69689;BME280;56932;38.402;-96.176;2023-04-20T00:46:37;96151.66;;;27.76;31.82
69689;BME280;56932;38.402;-96.176;2023-04-20T00:49:04;96167.29;;;27.30;31.65
69689;BME280;56932;38.402;-96.176;2023-04-20T00:51:29;96169.56;;;27.67;31.65
69689;BME280;56932;38.402;-96.176;2023-04-20T00:53:54;96181.94;;;26.81;32.39
69689;BME280;56932;38.402;-96.176;2023-04-20T00:56:19;96200.05;;;27.59;31.52
69689;BME280;56932;38.402;-96.176;2023-04-20T00:58:45;96203.84;;;27.15;32.31
69689;BME280;56932;38.402;-96.176;2023-04-20T01:01:10;96187.56;;;26.65;32.94
69689;BME280;56932;38.402;-96.176;2023-04-20T01:03:35;96185.85;;;27.38;32.79
69689;BME280;56932;38.402;-96.176;2023-04-20T01:06:01;96178.63;;;27.15;32.24
69689;BME280;56932;38.402;-96.176;2023-04-20T01:08:26;96181.02;;;26.34;33.30
69689;BME280;56932;38.402;-96.176;2023-04-20T01:10:52;96195.30;;;26.91;32.91
69689;BME280;56932;38.402;-96.176;2023-04-20T01:13:17;96198.54;;;27.41;32.17
69689;BME280;56932;38.402;-96.176;2023-04-20T01:15:43;96197.77;;;27.12;32.79
69689;BME280;56932;38.402;-96.176;2023-04-20T01:18:08;96217.50;;;25.83;33.63
69689;BME280;56932;38.402;-96.176;2023-04-20T01:20:33;96227.45;;;26.73;33.05
69689;BME280;56932;38.402;-96.176;2023-04-20T01:22:59;96230.96;;;26.55;33.15
69689;BME280;56932;38.402;-96.176;2023-04-20T01:25:24;96230.77;;;27.10;32.44
69689;BME280;56932;38.402;-96.176;2023-04-20T01:27:50;96251.54;;;26.70;32.84
69689;BME280;56932;38.402;-96.176;2023-04-20T01:30:15;96256.77;;;26.34;32.58
69689;BME280;56932;38.402;-96.176;2023-04-20T01:32:41;96250.67;;;27.23;31.92
69689;BME280;56932;38.402;-96.176;2023-04-20T01:35:08;96244.70;;;26.70;32.78
69689;BME280;56932;38.402;-96.176;2023-04-20T01:37:31;96268.66;;;26.85;32.40
69689;BME280;56932;38.402;-96.176;2023-04-20T01:39:57;96287.17;;;27.01;32.26
69689;BME280;56932;38.402;-96.176;2023-04-20T01:42:23;96272.21;;;26.43;32.68
69689;BME280;56932;38.402;-96.176;2023-04-20T01:44:48;96268.23;;;26.90;32.85
69689;BME280;56932;38.402;-96.176;2023-04-20T01:47:13;96270.84;;;27.14;32.58
69689;BME280;56932;38.402;-96.176;2023-04-20T01:49:38;96289.73;;;27.28;32.74
69689;BME280;56932;38.402;-96.176;2023-04-20T01:52:04;96297.42;;;26.13;33.71
69689;BME280;56932;38.402;-96.176;2023-04-20T01:54:29;96287.27;;;26.31;34.09
69689;BME280;56932;38.402;-96.176;2023-04-20T01:56:55;96274.89;;;26.33;34.20
69689;BME280;56932;38.402;-96.176;2023-04-20T01:59:20;96271.94;;;26.52;33.91
69689;BME280;56932;38.402;-96.176;2023-04-20T02:01:46;96282.37;;;26.46;34.02
69689;BME280;56932;38.402;-96.176;2023-04-20T02:04:11;96262.08;;;26.22;33.71
69689;BME280;56932;38.402;-96.176;2023-04-20T02:06:36;96249.05;;;26.69;33.81
69689;BME280;56932;38.402;-96.176;2023-04-20T02:09:01;96261.51;;;26.27;34.32
69689;BME280;56932;38.402;-96.176;2023-04-20T02:11:27;96267.30;;;26.55;34.19
69689;BME280;56932;38.402;-96.176;2023-04-20T02:13:52;96268.25;;;26.92;33.96
69689;BME280;56932;38.402;-96.176;2023-04-20T02:16:18;96284.60;;;26.43;33.58
69689;BME280;56932;38.402;-96.176;2023-04-20T02:18:43;96287.36;;;26.74;33.48
69689;BME280;56932;38.402;-96.176;2023-04-20T02:21:09;96287.17;;;27.56;32.95
69689;BME280;56932;38.402;-96.176;2023-04-20T02:23:34;96278.13;;;26.65;34.32
69689;BME280;56932;38.402;-96.176;2023-04-20T02:25:59;96280.81;;;26.37;33.93
69689;BME280;56932;38.402;-96.176;2023-04-20T02:28:24;96280.69;;;26.65;33.68
69689;BME280;56932;38.402;-96.176;2023-04-20T02:30:50;96275.31;;;26.71;34.28
69689;BME280;56932;38.402;-96.176;2023-04-20T02:33:15;96287.92;;;27.01;33.69
69689;BME280;56932;38.402;-96.176;2023-04-20T02:35:40;96276.09;;;26.99;33.50
69689;BME280;56932;38.402;-96.176;2023-04-20T02:38:06;96248.29;;;25.65;35.07
69689;BME280;56932;38.402;-96.176;2023-04-20T02:40:31;96258.05;;;26.59;35.54
69689;BME280;56932;38.402;-96.176;2023-04-20T02:42:57;96317.33;;;26.79;34.44
69689;BME280;56932;38.402;-96.176;2023-04-20T02:45:23;96338.67;;;26.11;34.49
69689;BME280;56932;38.402;-96.176;2023-04-20T02:47:48;96327.98;;;26.55;34.06
69689;BME280;56932;38.402;-96.176;2023-04-20T02:50:14;96309.25;;;26.38;33.88
69689;BME280;56932;38.402;-96.176;2023-04-20T02:52:39;96312.09;;;26.51;33.65
69689;BME280;56932;38.402;-96.176;2023-04-20T02:55:04;96329.78;;;26.88;33.12
69689;BME280;56932;38.402;-96.176;2023-04-20T02:57:29;96357.91;;;26.90;33.06
69689;BME280;56932;38.402;-96.176;2023-04-20T02:59:54;96376.99;;;26.16;33.94
69689;BME280;56932;38.402;-96.176;2023-04-20T03:02:20;96351.57;;;26.34;33.38
69689;BME280;56932;38.402;-96.176;2023-04-20T03:04:45;96344.20;;;26.36;33.54
69689;BME280;56932;38.402;-96.176;2023-04-20T03:07:11;96322.19;;;26.68;33.10
69689;BME280;56932;38.402;-96.176;2023-04-20T03:09:36;96317.02;;;26.37;33.77
69689;BME280;56932;38.402;-96.176;2023-04-20T03:12:02;96313.27;;;25.72;33.57
69689;BME280;56932;38.402;-96.176;2023-04-20T03:14:27;96312.73;;;26.02;33.71
69689;BME280;56932;38.402;-96.176;2023-04-20T03:16:53;96309.39;;;26.04;33.62
69689;BME280;56932;38.402;-96.176;2023-04-20T03:19:18;96299.30;;;26.76;33.30
69689;BME280;56932;38.402;-96.176;2023-04-20T03:21:44;96293.85;;;26.20;33.31
69689;BME280;56932;38.402;-96.176;2023-04-20T03:24:09;96316.10;;;25.29;33.29
69689;BME280;56932;38.402;-96.176;2023-04-20T03:26:34;96332.04;;;26.39;33.09
69689;BME280;56932;38.402;-96.176;2023-04-20T03:29:00;96333.68;;;26.48;32.91
69689;BME280;56932;38.402;-96.176;2023-04-20T03:31:25;96333.62;;;26.26;33.00
69689;BME280;56932;38.402;-96.176;2023-04-20T03:33:50;96333.61;;;25.91;34.05
69689;BME280;56932;38.402;-96.176;2023-04-20T03:36:16;96342.05;;;26.57;32.61
69689;BME280;56932;38.402;-96.176;2023-04-20T03:38:41;96351.33;;;25.78;33.50
69689;BME280;56932;38.402;-96.176;2023-04-20T03:41:07;96348.48;;;26.43;33.29
69689;BME280;56932;38.402;-96.176;2023-04-20T03:43:32;96346.22;;;26.48;33.20
69689;BME280;56932;38.402;-96.176;2023-04-20T03:45:58;96334.50;;;25.61;33.87
69689;BME280;56932;38.402;-96.176;2023-04-20T03:48:23;96332.32;;;25.67;33.54
69689;BME280;56932;38.402;-96.176;2023-04-20T03:50:48;96329.39;;;26.02;33.31
69689;BME280;56932;38.402;-96.176;2023-04-20T03:53:14;96323.65;;;26.77;32.14
69689;BME280;56932;38.402;-96.176;2023-04-20T03:55:39;96322.18;;;25.85;33.11
69689;BME280;56932;38.402;-96.176;2023-04-20T03:58:05;96316.17;;;25.10;33.98
69689;BME280;56932;38.402;-96.176;2023-04-20T04:00:30;96314.20;;;25.85;33.03
69689;BME280;56932;38.402;-96.176;2023-04-20T04:02:55;96304.75;;;25.24;34.04
69689;BME280;56932;38.402;-96.176;2023-04-20T04:05:21;96305.83;;;25.23;33.71
69689;BME280;56932;38.402;-96.176;2023-04-20T04:07:46;96300.79;;;25.84;33.28
69689;BME280;56932;38.402;-96.176;2023-04-20T04:10:11;96301.03;;;25.49;33.07
69689;BME280;56932;38.402;-96.176;2023-04-20T04:12:37;96303.43;;;25.50;33.36
69689;BME280;56932;38.402;-96.176;2023-04-20T04:15:02;96290.16;;;26.00;32.67
69689;BME280;56932;38.402;-96.176;2023-04-20T04:17:28;96299.34;;;26.11;33.17
69689;BME280;56932;38.402;-96.176;2023-04-20T04:19:53;96290.75;;;25.57;33.39
69689;BME280;56932;38.402;-96.176;2023-04-20T04:22:19;96293.68;;;25.27;33.51
69689;BME280;56932;38.402;-96.176;2023-04-20T04:24:44;96294.76;;;25.44;33.20
69689;BME280;56932;38.402;-96.176;2023-04-20T04:27:10;96300.64;;;25.61;32.99
69689;BME280;56932;38.402;-96.176;2023-04-20T04:29:35;96303.89;;;25.92;33.22
69689;BME280;56932;38.402;-96.176;2023-04-20T04:32:00;96302.71;;;25.39;33.49
69689;BME280;56932;38.402;-96.176;2023-04-20T04:34:25;96310.61;;;25.43;33.39
69689;BME280;56932;38.402;-96.176;2023-04-20T04:36:51;96287.01;;;25.35;33.74
69689;BME280;56932;38.402;-96.176;2023-04-20T04:39:16;96274.28;;;26.35;32.21
69689;BME280;56932;38.402;-96.176;2023-04-20T04:41:41;96275.04;;;26.02;32.28
69689;BME280;56932;38.402;-96.176;2023-04-20T04:44:07;96291.65;;;25.77;31.74
69689;BME280;56932;38.402;-96.176;2023-04-20T04:46:32;96287.06;;;26.31;31.89
69689;BME280;56932;38.402;-96.176;2023-04-20T04:48:58;96271.03;;;24.72;33.75
69689;BME280;56932;38.402;-96.176;2023-04-20T04:51:23;96252.83;;;26.17;32.60
69689;BME280;56932;38.402;-96.176;2023-04-20T04:53:49;96248.14;;;25.78;33.00
69689;BME280;56932;38.402;-96.176;2023-04-20T04:56:14;96264.56;;;25.55;32.68
69689;BME280;56932;38.402;-96.176;2023-04-20T04:58:40;96263.28;;;26.16;32.29
69689;BME280;56932;38.402;-96.176;2023-04-20T05:01:05;96266.16;;;25.27;33.06
69689;BME280;56932;38.402;-96.176;2023-04-20T05:03:30;96271.84;;;25.41;33.48
69689;BME280;56932;38.402;-96.176;2023-04-20T05:05:56;96276.41;;;25.69;32.78
69689;BME280;56932;38.402;-96.176;2023-04-20T05:08:21;96277.15;;;25.59;32.59
69689;BME280;56932;38.402;-96.176;2023-04-20T05:10:47;96266.69;;;26.22;32.10
69689;BME280;56932;38.402;-96.176;2023-04-20T05:13:12;96225.91;;;25.53;32.85
69689;BME280;56932;38.402;-96.176;2023-04-20T05:15:38;96215.43;;;25.36;33.32
69689;BME280;56932;38.402;-96.176;2023-04-20T05:18:04;96216.02;;;25.17;32.38
69689;BME280;56932;38.402;-96.176;2023-04-20T05:20:29;96197.64;;;25.20;32.87
69689;BME280;56932;38.402;-96.176;2023-04-20T05:22:54;96191.72;;;25.27;33.07
69689;BME280;56932;38.402;-96.176;2023-04-20T05:25:20;96200.18;;;24.98;33.42
69689;BME280;56932;38.402;-96.176;2023-04-20T05:27:45;96214.50;;;25.58;33.06
69689;BME280;56932;38.402;-96.176;2023-04-20T05:30:11;96242.20;;;24.50;33.09
69689;BME280;56932;38.402;-96.176;2023-04-20T05:32:36;96309.70;;;25.63;32.62
69689;BME280;56932;38.402;-96.176;2023-04-20T05:35:01;96350.07;;;25.59;32.65
69689;BME280;56932;38.402;-96.176;2023-04-20T05:37:27;96404.46;;;25.83;32.33
69689;BME280;56932;38.402;-96.176;2023-04-20T05:39:52;96426.31;;;24.52;34.31
69689;BME280;56932;38.402;-96.176;2023-04-20T05:42:18;96362.47;;;25.66;32.88
69689;BME280;56932;38.402;-96.176;2023-04-20T05:44:43;96290.86;;;26.34;31.72
69689;BME280;56932;38.402;-96.176;2023-04-20T05:47:09;96284.55;;;26.44;31.93
69689;BME280;56932;38.402;-96.176;2023-04-20T05:49:34;96305.27;;;24.76;33.99
69689;BME280;56932;38.402;-96.176;2023-04-20T05:52:00;96271.67;;;24.56;33.93
69689;BME280;56932;38.402;-96.176;2023-04-20T05:54:25;96280.19;;;25.92;32.04
69689;BME280;56932;38.402;-96.176;2023-04-20T05:56:50;96272.59;;;25.65;32.89
69689;BME280;56932;38.402;-96.176;2023-04-20T05:59:16;96298.15;;;25.56;33.01
69689;BME280;56932;38.402;-96.176;2023-04-20T06:01:41;96335.55;;;25.37;32.84
69689;BME280;56932;38.402;-96.176;2023-04-20T06:04:07;96334.05;;;25.35;31.97
69689;BME280;56932;38.402;-96.176;2023-04-20T06:06:32;96333.57;;;24.55;32.87
69689;BME280;56932;38.402;-96.176;2023-04-20T06:08:57;96421.56;;;25.57;32.24
69689;BME280;56932;38.402;-96.176;2023-04-20T06:11:23;96449.11;;;25.69;32.36
69689;BME280;56932;38.402;-96.176;2023-04-20T06:13:48;96458.64;;;25.62;32.65
69689;BME280;56932;38.402;-96.176;2023-04-20T06:16:14;96474.91;;;24.48;33.41
69689;BME280;56932;38.402;-96.176;2023-04-20T06:18:39;96541.63;;;24.93;33.13
69689;BME280;56932;38.402;-96.176;2023-04-20T06:21:05;96463.83;;;25.58;32.65
69689;BME280;56932;38.402;-96.176;2023-04-20T06:23:30;96339.94;;;25.11;33.17
69689;BME280;56932;38.402;-96.176;2023-04-20T06:25:55;96311.29;;;25.04;33.52
69689;BME280;56932;38.402;-96.176;2023-04-20T06:28:21;96332.59;;;24.64;33.71
69689;BME280;56932;38.402;-96.176;2023-04-20T06:30:46;96349.12;;;24.45;33.94
69689;BME280;56932;38.402;-96.176;2023-04-20T06:33:12;96334.68;;;25.76;32.29
69689;BME280;56932;38.402;-96.176;2023-04-20T06:35:39;96344.83;;;24.97;33.14
69689;BME280;56932;38.402;-96.176;2023-04-20T06:38:03;96324.27;;;25.11;32.12
69689;BME280;56932;38.402;-96.176;2023-04-20T06:40:28;96304.38;;;25.75;32.20
69689;BME280;56932;38.402;-96.176;2023-04-20T06:42:54;96299.51;;;25.49;32.43
69689;BME280;56932;38.402;-96.176;2023-04-20T06:45:19;96294.81;;;25.65;32.30
69689;BME280;56932;38.402;-96.176;2023-04-20T06:47:44;96280.86;;;25.51;32.42
69689;BME280;56932;38.402;-96.176;2023-04-20T06:50:10;96271.20;;;24.96;31.91
69689;BME280;56932;38.402;-96.176;2023-04-20T06:52:36;96252.99;;;25.33;32.61
69689;BME280;56932;38.402;-96.176;2023-04-20T06:55:01;96249.61;;;26.32;31.44
69689;BME280;56932;38.402;-96.176;2023-04-20T06:57:26;96239.43;;;25.28;32.61
69689;BME280;56932;38.402;-96.176;2023-04-20T06:59:51;96232.05;;;25.57;32.29
69689;BME280;56932;38.402;-96.176;2023-04-20T07:02:17;96232.99;;;25.19;32.19
69689;BME280;56932;38.402;-96.176;2023-04-20T07:04:42;96213.57;;;25.33;32.59
69689;BME280;56932;38.402;-96.176;2023-04-20T07:07:08;96210.06;;;25.18;32.98
69689;BME280;56932;38.402;-96.176;2023-04-20T07:09:33;96201.58;;;24.93;33.07
69689;BME280;56932;38.402;-96.176;2023-04-20T07:11:59;96193.24;;;24.99;33.04
69689;BME280;56932;38.402;-96.176;2023-04-20T07:14:24;96182.09;;;25.15;32.51
69689;BME280;56932;38.402;-96.176;2023-04-20T07:16:51;96166.22;;;25.80;32.36
69689;BME280;56932;38.402;-96.176;2023-04-20T07:19:15;96158.32;;;25.84;31.99
69689;BME280;56932;38.402;-96.176;2023-04-20T07:21:41;96146.28;;;24.95;33.08
69689;BME280;56932;38.402;-96.176;2023-04-20T07:24:07;96143.87;;;24.03;33.54
69689;BME280;56932;38.402;-96.176;2023-04-20T07:26:32;96132.69;;;25.09;32.94
69689;BME280;56932;38.402;-96.176;2023-04-20T07:28:57;96104.68;;;24.14;34.08
69689;BME280;56932;38.402;-96.176;2023-04-20T07:31:22;96097.60;;;25.55;32.63
69689;BME280;56932;38.402;-96.176;2023-04-20T07:33:48;96082.94;;;24.87;33.42
69689;BME280;56932;38.402;-96.176;2023-04-20T07:36:13;96070.37;;;25.00;32.67
69689;BME280;56932;38.402;-96.176;2023-04-20T07:38:39;96097.25;;;25.46;32.45
69689;BME280;56932;38.402;-96.176;2023-04-20T07:41:07;96084.16;;;24.90;33.07
69689;BME280;56932;38.402;-96.176;2023-04-20T07:43:29;96078.93;;;25.03;32.84
69689;BME280;56932;38.402;-96.176;2023-04-20T07:45:55;96062.89;;;25.16;32.71
69689;BME280;56932;38.402;-96.176;2023-04-20T07:48:20;96074.08;;;25.30;32.01
69689;BME280;56932;38.402;-96.176;2023-04-20T07:50:46;96095.73;;;25.78;31.99
69689;BME280;56932;38.402;-96.176;2023-04-20T07:53:11;96110.27;;;24.80;33.43
69689;BME280;56932;38.402;-96.176;2023-04-20T07:55:37;96122.20;;;25.32;32.51
69689;BME280;56932;38.402;-96.176;2023-04-20T07:58:03;96086.77;;;24.89;32.47
69689;BME280;56932;38.402;-96.176;2023-04-20T08:00:28;96082.98;;;24.63;33.40
69689;BME280;56932;38.402;-96.176;2023-04-20T08:02:53;96080.59;;;24.55;33.51
69689;BME280;56932;38.402;-96.176;2023-04-20T08:05:19;96077.79;;;24.88;33.02
69689;BME280;56932;38.402;-96.176;2023-04-20T08:07:44;96070.43;;;25.01;32.85
69689;BME280;56932;38.402;-96.176;2023-04-20T08:10:11;96054.07;;;24.46;32.34
69689;BME280;56932;38.402;-96.176;2023-04-20T08:12:35;96058.48;;;25.41;32.60
69689;BME280;56932;38.402;-96.176;2023-04-20T08:15:01;96060.21;;;24.07;34.00
69689;BME280;56932;38.402;-96.176;2023-04-20T08:17:26;96044.65;;;24.62;33.60
69689;BME280;56932;38.402;-96.176;2023-04-20T08:19:51;96039.77;;;24.66;33.27
69689;BME280;56932;38.402;-96.176;2023-04-20T08:22:17;96046.82;;;24.88;32.97
69689;BME280;56932;38.402;-96.176;2023-04-20T08:24:42;96016.09;;;25.02;32.78
69689;BME280;56932;38.402;-96.176;2023-04-20T08:27:08;96020.16;;;23.92;34.19
69689;BME280;56932;38.402;-96.176;2023-04-20T08:29:33;96022.70;;;25.21;32.63
69689;BME280;56932;38.402;-96.176;2023-04-20T08:31:59;96013.65;;;25.07;32.82
69689;BME280;56932;38.402;-96.176;2023-04-20T08:34:24;96006.04;;;25.42;32.42
69689;BME280;56932;38.402;-96.176;2023-04-20T08:36:50;96010.77;;;24.56;33.46
69689;BME280;56932;38.402;-96.176;2023-04-20T08:39:19;96005.59;;;24.17;34.25
69689;BME280;56932;38.402;-96.176;2023-04-20T08:41:41;96018.56;;;24.86;33.52
69689;BME280;56932;38.402;-96.176;2023-04-20T08:44:07;96037.85;;;24.17;33.42
69689;BME280;56932;38.402;-96.176;2023-04-20T08:46:32;96041.84;;;24.20;33.95
69689;BME280;56932;38.402;-96.176;2023-04-20T08:49:00;96057.87;;;26.10;31.92
69689;BME280;56932;38.402;-96.176;2023-04-20T08:51:23;96061.03;;;24.12;34.69
69689;BME280;56932;38.402;-96.176;2023-04-20T08:53:48;96075.43;;;25.03;32.98
69689;BME280;56932;38.402;-96.176;2023-04-20T08:56:14;96068.54;;;23.96;33.94
69689;BME280;56932;38.402;-96.176;2023-04-20T08:58:39;96057.06;;;24.70;33.38
69689;BME280;56932;38.402;-96.176;2023-04-20T09:01:05;96059.34;;;23.95;34.58
69689;BME280;56932;38.402;-96.176;2023-04-20T09:03:33;96078.92;;;24.16;34.69
69689;BME280;56932;38.402;-96.176;2023-04-20T09:05:55;96091.17;;;24.81;33.28
69689;BME280;56932;38.402;-96.176;2023-04-20T09:10:46;96098.67;;;24.29;33.86
69689;BME280;56932;38.402;-96.176;2023-04-20T09:15:37;96093.31;;;25.05;33.27
69689;BME280;56932;38.402;-96.176;2023-04-20T09:18:11;96099.01;;;24.70;32.78
69689;BME280;56932;38.402;-96.176;2023-04-20T09:20:30;96109.22;;;24.46;33.34
69689;BME280;56932;38.402;-96.176;2023-04-20T09:22:53;96112.33;;;25.01;33.01
69689;BME280;56932;38.402;-96.176;2023-04-20T09:25:19;96120.32;;;24.82;33.48
69689;BME280;56932;38.402;-96.176;2023-04-20T09:30:11;96131.58;;;24.46;32.74
69689;BME280;56932;38.402;-96.176;2023-04-20T09:32:35;96129.40;;;24.70;33.41
69689;BME280;56932;38.402;-96.176;2023-04-20T09:35:00;96125.39;;;25.32;32.88
69689;BME280;56932;38.402;-96.176;2023-04-20T09:37:26;96120.55;;;24.93;33.00
69689;BME280;56932;38.402;-96.176;2023-04-20T09:39:51;96118.02;;;24.85;33.14
69689;BME280;56932;38.402;-96.176;2023-04-20T09:42:17;96125.78;;;25.40;32.41
69689;BME280;56932;38.402;-96.176;2023-04-20T09:44:42;96120.30;;;24.79;33.15
69689;BME280;56932;38.402;-96.176;2023-04-20T09:47:07;96123.33;;;25.06;32.80
69689;BME280;56932;38.402;-96.176;2023-04-20T09:49:33;96128.69;;;24.26;33.80
69689;BME280;56932;38.402;-96.176;2023-04-20T09:52:02;96116.71;;;24.32;34.03
69689;BME280;56932;38.402;-96.176;2023-04-20T09:54:23;96109.86;;;24.17;33.91
69689;BME280;56932;38.402;-96.176;2023-04-20T09:56:50;96111.26;;;23.72;34.45
69689;BME280;56932;38.402;-96.176;2023-04-20T09:59:16;96107.37;;;24.10;34.34
69689;BME280;56932;38.402;-96.176;2023-04-20T10:01:40;96101.52;;;25.30;32.79
69689;BME280;56932;38.402;-96.176;2023-04-20T10:04:07;96119.83;;;24.46;32.91
69689;BME280;56932;38.402;-96.176;2023-04-20T10:06:32;96201.24;;;25.68;32.07
69689;BME280;56932;38.402;-96.176;2023-04-20T10:08:57;96315.97;;;24.29;33.69
69689;BME280;56932;38.402;-96.176;2023-04-20T10:11:27;96335.70;;;24.04;34.24
69689;BME280;56932;38.402;-96.176;2023-04-20T10:13:47;96277.43;;;24.89;32.91
69689;BME280;56932;38.402;-96.176;2023-04-20T10:16:17;96255.44;;;23.90;33.38
69689;BME280;56932;38.402;-96.176;2023-04-20T10:18:38;96248.63;;;25.31;32.18
69689;BME280;56932;38.402;-96.176;2023-04-20T10:21:05;96314.84;;;24.29;33.29
69689;BME280;56932;38.402;-96.176;2023-04-20T10:23:29;96366.91;;;25.06;32.37
69689;BME280;56932;38.402;-96.176;2023-04-20T10:25:56;96252.16;;;24.83;32.82
69689;BME280;56932;38.402;-96.176;2023-04-20T10:28:20;96267.36;;;24.97;32.31
69689;BME280;56932;38.402;-96.176;2023-04-20T10:30:50;96251.78;;;24.68;32.78
69689;BME280;56932;38.402;-96.176;2023-04-20T10:33:12;96261.03;;;24.26;33.23
69689;BME280;56932;38.402;-96.176;2023-04-20T10:35:41;96285.70;;;25.55;31.68
69689;BME280;56932;38.402;-96.176;2023-04-20T10:38:02;96292.74;;;24.19;32.92
69689;BME280;56932;38.402;-96.176;2023-04-20T10:40:27;96307.28;;;25.00;31.61
69689;BME280;56932;38.402;-96.176;2023-04-20T10:42:53;96270.95;;;24.17;32.89
69689;BME280;56932;38.402;-96.176;2023-04-20T10:45:18;96289.83;;;25.46;31.89
69689;BME280;56932;38.402;-96.176;2023-04-20T10:47:43;96246.69;;;24.66;32.19
69689;BME280;56932;38.402;-96.176;2023-04-20T10:50:10;96302.27;;;24.03;32.10
69689;BME280;56932;38.402;-96.176;2023-04-20T10:52:34;96317.64;;;24.85;32.12
69689;BME280;56932;38.402;-96.176;2023-04-20T10:54:59;96296.22;;;24.57;32.11
69689;BME280;56932;38.402;-96.176;2023-04-20T10:57:25;96288.71;;;24.23;32.50
69689;BME280;56932;38.402;-96.176;2023-04-20T10:59:50;96311.07;;;24.85;32.08
69689;BME280;56932;38.402;-96.176;2023-04-20T11:02:16;96310.17;;;24.04;32.36
69689;BME280;56932;38.402;-96.176;2023-04-20T11:04:41;96318.85;;;24.86;31.62
69689;BME280;56932;38.402;-96.176;2023-04-20T11:07:08;96331.06;;;24.46;32.34
69689;BME280;56932;38.402;-96.176;2023-04-20T11:09:33;96355.21;;;24.37;32.45
69689;BME280;56932;38.402;-96.176;2023-04-20T11:11:59;96356.73;;;25.02;31.35
69689;BME280;56932;38.402;-96.176;2023-04-20T11:14:23;96383.28;;;24.54;31.90
69689;BME280;56932;38.402;-96.176;2023-04-20T11:16:51;96405.56;;;24.34;32.72
69689;BME280;56932;38.402;-96.176;2023-04-20T11:19:23;96421.46;;;23.94;32.85
69689;BME280;56932;38.402;-96.176;2023-04-20T11:21:41;96429.78;;;24.95;31.95
69689;BME280;56932;38.402;-96.176;2023-04-20T11:26:35;96436.43;;;24.96;31.28
69689;BME280;56932;38.402;-96.176;2023-04-20T11:28:55;96441.12;;;24.12;32.46
69689;BME280;56932;38.402;-96.176;2023-04-20T11:31:21;96457.45;;;24.88;31.28
69689;BME280;56932;38.402;-96.176;2023-04-20T11:33:46;96480.42;;;25.02;31.29
69689;BME280;56932;38.402;-96.176;2023-04-20T11:36:18;96493.39;;;23.39;32.27
69689;BME280;56932;38.402;-96.176;2023-04-20T11:38:37;96488.75;;;24.22;31.91
69689;BME280;56932;38.402;-96.176;2023-04-20T11:41:03;96500.67;;;25.33;31.20
69689;BME280;56932;38.402;-96.176;2023-04-20T11:43:28;96512.36;;;24.74;31.51
69689;BME280;56932;38.402;-96.176;2023-04-20T11:45:54;96513.79;;;24.77;31.43
69689;BME280;56932;38.402;-96.176;2023-04-20T11:48:20;96518.49;;;23.78;32.20
69689;BME280;56932;38.402;-96.176;2023-04-20T11:50:45;96530.21;;;23.61;32.71
69689;BME280;56932;38.402;-96.176;2023-04-20T11:53:10;96545.68;;;24.36;31.77
69689;BME280;56932;38.402;-96.176;2023-04-20T11:55:35;96548.52;;;24.28;31.78
69689;BME280;56932;38.402;-96.176;2023-04-20T11:58:01;96558.83;;;23.92;31.96
69689;BME280;56932;38.402;-96.176;2023-04-20T12:00:26;96561.13;;;23.87;31.99
69689;BME280;56932;38.402;-96.176;2023-04-20T12:02:52;96575.13;;;24.72;31.55
69689;BME280;56932;38.402;-96.176;2023-04-20T12:05:17;96575.84;;;24.79;31.48
69689;BME280;56932;38.402;-96.176;2023-04-20T12:07:42;96591.53;;;24.79;31.39
69689;BME280;56932;38.402;-96.176;2023-04-20T12:10:09;96605.11;;;24.40;30.74
69689;BME280;56932;38.402;-96.176;2023-04-20T12:12:34;96612.05;;;24.55;31.33
69689;BME280;56932;38.402;-96.176;2023-04-20T12:14:59;96615.85;;;24.44;31.38
69689;BME280;56932;38.402;-96.176;2023-04-20T12:17:24;96623.60;;;24.90;30.89
69689;BME280;56932;38.402;-96.176;2023-04-20T12:19:50;96626.14;;;24.56;31.55
69689;BME280;56932;38.402;-96.176;2023-04-20T12:22:15;96630.45;;;24.00;31.82
69689;BME280;56932;38.402;-96.176;2023-04-20T12:24:41;96647.51;;;25.29;30.32
69689;BME280;56932;38.402;-96.176;2023-04-20T12:27:06;96656.27;;;24.31;31.68
69689;BME280;56932;38.402;-96.176;2023-04-20T12:29:32;96665.55;;;24.22;31.76
69689;BME280;56932;38.402;-96.176;2023-04-20T12:31:58;96665.95;;;24.05;31.93
69689;BME280;56932;38.402;-96.176;2023-04-20T12:34:23;96670.65;;;23.51;31.87
69689;BME280;56932;38.402;-96.176;2023-04-20T12:36:48;96680.92;;;25.02;30.78
69689;BME280;56932;38.402;-96.176;2023-04-20T12:39:14;96701.38;;;25.54;30.13